Time;durP1;ratioP1;P1;durP2;ratioP2;P2;SDS_P1;SDS_P2;PMS_P1;PMS_P2;Temp;Humidity;BMP_temperature;BMP_pressure;BME280_temperature;BME280_humidity;BME280_pressure;Samples;Min_cycle;Max_cycle;Signal;HPM_P1;HPM_P2
2022/08/02 00:00:42;;;;;;;1.90;1.55;;;19.40;99.90;;;;;;4987488;28;20030;-75
2022/08/02 00:03:08;;;;;;;2.25;1.45;;;19.40;99.90;;;;;;4981655;28;20088;-75
2022/08/02 00:05:34;;;;;;;2.38;1.77;;;19.40;99.90;;;;;;4987413;28;20068;-76
2022/08/02 00:08:00;;;;;;;2.78;1.40;;;19.30;99.90;;;;;;4987339;28;20117;-75
2022/08/02 00:10:25;;;;;;;1.77;1.58;;;19.30;99.90;;;;;;4992849;28;20023;-75
2022/08/02 00:12:51;;;;;;;2.47;1.50;;;19.30;99.90;;;;;;4992114;28;20532;-75
2022/08/02 00:15:17;;;;;;;2.50;1.70;;;19.20;99.90;;;;;;4990005;28;20100;-75
2022/08/02 00:17:43;;;;;;;2.42;1.50;;;19.20;99.90;;;;;;4989813;28;20074;-75
2022/08/02 00:20:10;;;;;;;1.92;1.38;;;19.20;99.90;;;;;;4998296;28;20025;-75
2022/08/02 00:22:36;;;;;;;2.75;1.30;;;19.20;99.90;;;;;;4984059;28;20467;-75
2022/08/02 00:25:02;;;;;;;2.40;1.60;;;19.10;99.90;;;;;;4989475;28;20088;-75
2022/08/02 00:27:28;;;;;;;4.93;1.58;;;19.10;99.90;;;;;;4994817;28;20054;-75
2022/08/02 00:29:54;;;;;;;3.25;1.63;;;19.10;99.90;;;;;;4996924;28;20022;-75
2022/08/02 00:32:21;;;;;;;3.45;1.70;;;19.00;99.90;;;;;;4991359;28;20038;-75
2022/08/02 00:34:47;;;;;;;2.38;1.30;;;19.00;99.90;;;;;;4988287;28;20018;-75
2022/08/02 00:37:13;;;;;;;2.20;1.50;;;19.00;99.90;;;;;;4986145;28;20030;-75
2022/08/02 00:39:38;;;;;;;1.92;1.50;;;19.00;99.90;;;;;;4990265;28;20034;-75
2022/08/02 00:42:05;;;;;;;3.55;1.40;;;19.00;99.90;;;;;;4986915;28;20022;-75
2022/08/02 00:44:31;;;;;;;1.65;1.50;;;19.00;99.90;;;;;;4987153;28;20026;-75
2022/08/02 00:46:57;;;;;;;2.92;1.40;;;19.00;99.90;;;;;;4989868;28;20029;-75
2022/08/02 00:49:22;;;;;;;6.50;1.85;;;19.00;99.90;;;;;;4987091;28;20038;-75
2022/08/02 00:51:48;;;;;;;1.85;1.50;;;18.90;99.90;;;;;;4988897;28;20049;-75
2022/08/02 00:54:14;;;;;;;2.08;1.60;;;18.90;99.90;;;;;;4988679;28;20034;-75
2022/08/02 00:56:39;;;;;;;2.83;1.40;;;19.00;99.90;;;;;;4989508;28;20145;-75
2022/08/02 00:59:05;;;;;;;3.17;1.45;;;18.90;99.90;;;;;;4981556;28;20026;-75
2022/08/02 01:01:37;;;;;;;1.67;1.27;;;18.90;99.90;;;;;;4988794;28;20395;-75
2022/08/02 01:04:12;;;;;;;1.75;1.17;;;18.90;99.90;;;;;;4990498;28;20031;-75
2022/08/02 01:06:39;;;;;;;2.67;1.35;;;18.90;99.90;;;;;;4985737;28;20031;-74
2022/08/02 01:09:05;;;;;;;2.40;1.35;;;18.90;99.90;;;;;;4986764;28;20019;-75
2022/08/02 01:11:33;;;;;;;4.10;1.40;;;18.90;99.90;;;;;;4987378;28;20031;-75
2022/08/02 01:14:09;;;;;;;2.13;1.38;;;18.90;99.90;;;;;;4985967;28;20029;-75
2022/08/02 01:17:05;;;;;;;3.25;1.30;;;18.90;99.90;;;;;;4983819;28;20416;-75
2022/08/02 01:19:50;;;;;;;3.38;1.50;;;18.90;99.90;;;;;;4984666;28;20040;-75
2022/08/02 01:22:40;;;;;;;3.40;1.50;;;18.80;99.90;;;;;;4988571;28;20096;-75
2022/08/02 01:25:17;;;;;;;3.72;1.52;;;18.80;99.90;;;;;;4988851;28;20034;-75
2022/08/02 01:28:05;;;;;;;2.28;1.48;;;18.80;99.90;;;;;;4989926;28;20030;-74
2022/08/02 01:30:33;;;;;;;2.63;1.60;;;18.70;99.90;;;;;;4980447;28;20407;-75
2022/08/02 01:33:02;;;;;;;2.05;1.27;;;18.70;99.90;;;;;;4986640;28;20037;-75
2022/08/02 01:35:33;;;;;;;2.35;1.30;;;18.70;99.90;;;;;;4985542;28;20068;-75
2022/08/02 01:38:12;;;;;;;2.58;1.65;;;18.60;99.90;;;;;;4989268;28;20022;-75
2022/08/02 01:40:43;;;;;;;7.57;1.70;;;18.60;99.90;;;;;;4986608;28;20113;-75
2022/08/02 01:43:10;;;;;;;2.33;1.42;;;18.60;99.90;;;;;;4988923;28;20460;-75
2022/08/02 01:45:39;;;;;;;2.75;1.63;;;18.60;99.90;;;;;;4988509;28;20113;-75
2022/08/02 01:48:07;;;;;;;2.67;1.35;;;18.60;99.90;;;;;;4982006;28;20113;-75
2022/08/02 01:50:35;;;;;;;4.07;2.30;;;18.50;99.90;;;;;;4989526;28;20060;-75
2022/08/02 01:53:06;;;;;;;3.83;2.15;;;18.60;99.90;;;;;;4987188;28;20465;-76
2022/08/02 01:55:48;;;;;;;4.80;2.72;;;18.60;99.90;;;;;;4983779;28;20015;-75
2022/08/02 01:58:17;;;;;;;4.07;2.20;;;18.60;99.90;;;;;;4981402;28;20026;-76
2022/08/02 02:00:44;;;;;;;3.25;2.35;;;18.60;99.90;;;;;;4982091;28;20058;-76
2022/08/02 02:03:15;;;;;;;3.97;1.92;;;18.50;99.90;;;;;;4992751;28;20034;-76
2022/08/02 02:05:43;;;;;;;3.83;2.08;;;18.60;99.90;;;;;;4984507;28;20582;-75
2022/08/02 02:08:09;;;;;;;4.25;1.70;;;18.50;99.90;;;;;;4990728;28;20050;-76
2022/08/02 02:10:38;;;;;;;3.88;2.28;;;18.50;99.90;;;;;;4984057;28;20657;-75
2022/08/02 02:13:07;;;;;;;2.17;1.70;;;18.50;99.90;;;;;;4993850;28;20118;-76
2022/08/02 02:15:34;;;;;;;2.83;1.67;;;18.50;99.90;;;;;;4981340;28;20034;-75
2022/08/02 02:18:01;;;;;;;2.45;1.77;;;18.50;99.90;;;;;;4990789;28;20510;-75
2022/08/02 02:20:27;;;;;;;4.63;2.15;;;18.40;99.90;;;;;;4992388;28;20038;-75
2022/08/02 02:22:53;;;;;;;3.33;1.50;;;18.50;99.90;;;;;;4992972;28;20034;-75
2022/08/02 02:25:21;;;;;;;4.07;1.63;;;18.40;99.90;;;;;;4988951;28;20022;-76
2022/08/02 02:28:05;;;;;;;3.08;1.80;;;18.40;99.90;;;;;;4995287;28;20034;-76
2022/08/02 02:30:33;;;;;;;3.33;2.05;;;18.30;99.90;;;;;;5003323;28;20030;-75
2022/08/02 02:33:02;;;;;;;7.00;1.90;;;18.30;99.90;;;;;;4994255;28;20018;-76
2022/08/02 02:35:32;;;;;;;2.70;1.42;;;18.20;99.90;;;;;;4988687;28;20495;-76
2022/08/02 02:38:01;;;;;;;4.57;1.52;;;18.20;99.90;;;;;;4994426;28;20019;-77
2022/08/02 02:40:28;;;;;;;5.07;1.88;;;18.20;99.90;;;;;;4988081;28;20026;-76
2022/08/02 02:42:55;;;;;;;2.45;1.52;;;18.20;99.90;;;;;;5000698;28;20026;-76
2022/08/02 02:45:21;;;;;;;3.65;1.50;;;18.20;99.90;;;;;;4988017;28;20427;-76
2022/08/02 02:47:48;;;;;;;2.28;1.23;;;18.20;99.90;;;;;;4991578;28;20467;-77
2022/08/02 02:50:16;;;;;;;2.95;1.30;;;18.20;99.90;;;;;;4996668;28;20106;-77
2022/08/02 02:52:42;;;;;;;6.65;1.70;;;18.20;99.90;;;;;;4995184;28;20076;-76
2022/08/02 02:55:09;;;;;;;2.28;1.30;;;18.20;99.90;;;;;;5011523;28;20033;-76
2022/08/02 02:57:36;;;;;;;2.13;1.45;;;18.10;99.90;;;;;;4996455;28;20507;-76
2022/08/02 03:00:13;;;;;;;1.98;1.40;;;18.10;99.90;;;;;;4996321;28;20442;-76
2022/08/02 03:02:41;;;;;;;1.73;1.15;;;18.10;99.90;;;;;;5011522;28;20027;-76
2022/08/02 03:05:09;;;;;;;3.33;1.38;;;18.10;99.90;;;;;;4995252;28;20041;-76
2022/08/02 03:07:35;;;;;;;2.15;1.35;;;18.10;99.90;;;;;;4996165;28;20022;-76
2022/08/02 03:10:06;;;;;;;4.88;1.40;;;18.10;99.90;;;;;;4996281;28;20042;-76
2022/08/02 03:12:34;;;;;;;2.53;1.50;;;18.00;99.90;;;;;;4994979;28;20030;-76
2022/08/02 03:15:03;;;;;;;6.03;1.58;;;18.10;99.90;;;;;;4996033;28;20072;-77
2022/08/02 03:17:43;;;;;;;3.45;1.80;;;18.00;99.90;;;;;;4996228;28;20062;-76
2022/08/02 03:20:12;;;;;;;4.57;1.73;;;18.00;99.90;;;;;;4995976;28;20027;-76
2022/08/02 03:22:38;;;;;;;4.40;1.75;;;18.00;99.90;;;;;;4994682;28;20034;-76
2022/08/02 03:25:05;;;;;;;2.90;1.65;;;18.00;99.90;;;;;;4987623;28;20037;-76
2022/08/02 03:27:30;;;;;;;4.00;2.10;;;18.00;99.90;;;;;;4988375;28;20513;-76
2022/08/02 03:29:56;;;;;;;2.25;1.83;;;17.90;99.90;;;;;;4995789;28;20019;-76
2022/08/02 03:32:23;;;;;;;3.65;2.22;;;17.90;99.90;;;;;;4995525;28;20109;-76
2022/08/02 03:34:48;;;;;;;2.25;1.70;;;17.90;99.90;;;;;;4994902;28;20534;-76
2022/08/02 03:37:14;;;;;;;5.07;1.98;;;17.80;99.90;;;;;;4994946;28;20034;-75
2022/08/02 03:39:40;;;;;;;5.43;1.85;;;17.90;99.90;;;;;;4994132;28;20403;-75
2022/08/02 03:42:07;;;;;;;2.05;1.48;;;17.80;99.90;;;;;;4991011;28;20037;-75
2022/08/02 03:44:34;;;;;;;8.43;2.35;;;17.80;99.90;;;;;;4992516;28;20029;-75
2022/08/02 03:47:00;;;;;;;3.88;1.98;;;17.80;99.90;;;;;;4992488;28;20471;-75
2022/08/02 03:49:26;;;;;;;4.88;2.13;;;17.70;99.90;;;;;;4993229;28;20029;-75
2022/08/02 03:51:53;;;;;;;7.60;1.90;;;17.70;99.90;;;;;;4994808;28;20022;-76
2022/08/02 03:54:19;;;;;;;4.80;1.98;;;17.70;99.90;;;;;;4991209;28;20018;-76
2022/08/02 03:56:45;;;;;;;2.65;1.58;;;17.70;99.90;;;;;;4990877;28;20109;-75
2022/08/02 03:59:12;;;;;;;1.83;1.65;;;17.70;99.90;;;;;;4987029;28;20035;-76
2022/08/02 04:01:39;;;;;;;3.67;1.45;;;17.60;99.90;;;;;;4987599;28;20109;-75
2022/08/02 04:04:05;;;;;;;4.65;2.08;;;17.70;99.90;;;;;;4991731;28;20033;-75
2022/08/02 04:06:31;;;;;;;2.85;1.52;;;17.70;99.90;;;;;;4987107;28;20438;-75
2022/08/02 04:08:57;;;;;;;4.03;1.50;;;17.60;99.90;;;;;;4994190;28;20030;-76
2022/08/02 04:11:32;;;;;;;5.28;2.03;;;17.60;99.90;;;;;;4987491;28;20077;-75
2022/08/02 04:14:09;;;;;;;3.67;1.40;;;17.60;99.90;;;;;;4985148;28;20023;-76
2022/08/02 04:16:45;;;;;;;3.25;1.85;;;17.70;99.90;;;;;;4997129;28;20026;-75
2022/08/02 04:19:18;;;;;;;5.68;1.70;;;17.60;99.90;;;;;;4986892;28;20088;-76
2022/08/02 04:21:46;;;;;;;3.50;1.90;;;17.60;99.90;;;;;;4985569;28;20023;-77
2022/08/02 04:24:16;;;;;;;2.30;1.90;;;17.70;99.90;;;;;;4983999;28;20030;-76
2022/08/02 04:26:43;;;;;;;2.92;2.30;;;17.60;99.90;;;;;;4985635;28;20030;-77
2022/08/02 04:29:11;;;;;;;4.78;1.63;;;17.70;99.90;;;;;;4991469;28;20081;-77
2022/08/02 04:31:36;;;;;;;4.20;1.58;;;17.70;99.90;;;;;;4992763;28;20041;-77
2022/08/02 04:34:02;;;;;;;1.65;1.23;;;17.60;99.90;;;;;;4993729;28;20018;-77
2022/08/02 04:36:29;;;;;;;3.47;1.42;;;17.70;99.90;;;;;;4995421;28;20077;-77
2022/08/02 04:38:54;;;;;;;3.08;1.77;;;17.70;99.90;;;;;;4989003;28;20122;-77
2022/08/02 04:41:20;;;;;;;6.30;1.80;;;17.70;99.90;;;;;;4986296;28;20113;-76
2022/08/02 04:43:46;;;;;;;3.70;1.42;;;17.70;99.90;;;;;;4990897;28;20058;-77
2022/08/02 04:46:11;;;;;;;3.17;1.58;;;17.70;99.90;;;;;;4994095;28;20038;-76
2022/08/02 04:48:37;;;;;;;3.25;1.55;;;17.80;99.90;;;;;;4993746;28;20089;-76
2022/08/02 04:51:03;;;;;;;3.72;2.00;;;17.80;99.90;;;;;;4994121;28;20038;-75
2022/08/02 04:53:28;;;;;;;3.50;1.70;;;17.80;99.90;;;;;;4994169;28;20552;-75
2022/08/02 04:55:54;;;;;;;3.78;1.52;;;17.90;99.90;;;;;;4993941;28;20030;-76
2022/08/02 04:58:19;;;;;;;2.58;1.45;;;17.90;99.90;;;;;;4981059;28;20537;-76
2022/08/02 05:00:45;;;;;;;4.30;1.70;;;18.00;99.90;;;;;;4990609;28;20035;-76
2022/08/02 05:03:11;;;;;;;2.85;1.17;;;18.00;99.90;;;;;;4991740;28;20023;-76
2022/08/02 05:05:37;;;;;;;4.20;2.17;;;18.10;99.90;;;;;;4990354;28;20026;-76
2022/08/02 05:08:03;;;;;;;5.18;1.85;;;18.20;99.90;;;;;;4975527;28;20117;-76
2022/08/02 05:10:29;;;;;;;3.42;2.05;;;18.30;99.90;;;;;;4981581;28;20093;-75
2022/08/02 05:12:54;;;;;;;3.38;1.80;;;18.40;99.90;;;;;;4995028;28;20072;-76
2022/08/02 05:15:20;;;;;;;3.70;2.03;;;18.50;99.90;;;;;;4992139;28;20030;-76
2022/08/02 05:17:47;;;;;;;7.45;1.52;;;18.60;99.90;;;;;;4991269;28;20081;-76
2022/08/02 05:20:13;;;;;;;3.38;1.33;;;18.70;99.90;;;;;;4980567;28;20034;-76
2022/08/02 05:22:39;;;;;;;4.93;1.67;;;18.80;99.90;;;;;;4983616;28;20033;-76
2022/08/02 05:25:05;;;;;;;3.83;1.80;;;18.90;99.90;;;;;;4998221;28;20026;-76
2022/08/02 05:27:32;;;;;;;6.95;2.92;;;19.10;99.90;;;;;;5003762;28;20030;-76
2022/08/02 05:29:58;;;;;;;3.83;2.03;;;19.20;99.90;;;;;;4988838;28;20030;-69
2022/08/02 05:32:24;;;;;;;4.03;2.08;;;19.30;99.90;;;;;;4993264;28;20030;-69
2022/08/02 05:34:50;;;;;;;3.50;2.08;;;19.40;99.90;;;;;;4991696;28;20049;-69
2022/08/02 05:37:16;;;;;;;3.70;1.50;;;19.50;99.90;;;;;;4990289;28;20037;-69
2022/08/02 05:39:44;;;;;;;6.90;2.05;;;19.70;99.90;;;;;;4985342;28;20034;-70
2022/08/02 05:42:10;;;;;;;4.28;2.00;;;19.80;99.90;;;;;;4983929;28;20034;-69
2022/08/02 05:44:36;;;;;;;3.65;1.92;;;20.00;99.90;;;;;;4988250;28;20048;-69
2022/08/02 05:47:02;;;;;;;3.00;1.63;;;20.10;99.90;;;;;;4989255;28;20662;-69
2022/08/02 05:49:28;;;;;;;4.15;1.45;;;20.20;99.90;;;;;;4988625;28;20023;-70
2022/08/02 05:52:24;;;;;;;2.90;1.65;;;20.40;99.90;;;;;;4987557;28;20026;-70
2022/08/02 05:54:52;;;;;;;3.40;1.60;;;20.40;99.90;;;;;;4983625;28;20682;-69
2022/08/02 05:57:33;;;;;;;1.83;1.23;;;20.60;99.90;;;;;;4990943;28;20030;-69
2022/08/02 06:00:08;;;;;;;3.25;1.25;;;20.70;99.90;;;;;;4987715;28;20403;-70
2022/08/02 06:02:37;;;;;;;2.10;1.30;;;20.50;99.90;;;;;;4987980;28;20025;-69
2022/08/02 06:05:07;;;;;;;2.85;1.17;;;20.40;99.90;;;;;;4986039;28;20030;-76
2022/08/02 06:07:35;;;;;;;3.35;1.55;;;20.30;99.90;;;;;;4978673;28;20432;-77
2022/08/02 06:10:05;;;;;;;2.60;1.60;;;20.40;99.90;;;;;;4995468;28;20023;-78
2022/08/02 06:12:34;;;;;;;2.88;1.38;;;20.30;99.90;;;;;;4995323;28;20026;-77
2022/08/02 06:15:02;;;;;;;5.03;1.85;;;20.30;99.90;;;;;;4995218;28;20110;-77
2022/08/02 06:17:29;;;;;;;6.03;2.10;;;20.30;99.90;;;;;;4992694;28;20057;-75
2022/08/02 06:19:59;;;;;;;4.63;1.50;;;20.20;99.90;;;;;;4995959;28;20039;-74
2022/08/02 06:22:26;;;;;;;4.45;1.98;;;20.20;99.90;;;;;;4999456;28;20030;-77
2022/08/02 06:24:53;;;;;;;4.90;1.70;;;20.20;99.90;;;;;;5000916;28;20105;-76
2022/08/02 06:27:20;;;;;;;3.53;1.80;;;20.20;99.90;;;;;;4996696;28;20109;-76
2022/08/02 06:29:48;;;;;;;10.80;2.08;;;20.20;99.90;;;;;;4992958;28;20375;-75
2022/08/02 06:32:17;;;;;;;4.13;1.67;;;20.30;99.90;;;;;;4993392;28;20584;-76
2022/08/02 06:34:43;;;;;;;3.10;2.00;;;20.40;99.90;;;;;;4994094;28;20168;-74
2022/08/02 06:37:37;;;;;;;7.88;2.00;;;20.50;99.90;;;;;;4989952;28;20100;-72
2022/08/02 06:40:34;;;;;;;2.88;1.65;;;20.60;99.90;;;;;;4993702;28;20058;-77
2022/08/02 06:43:40;;;;;;;4.82;1.73;;;20.70;99.90;;;;;;4989153;28;20047;-76
2022/08/02 06:46:06;;;;;;;2.83;2.03;;;20.90;99.90;;;;;;4992382;28;20039;-76
2022/08/02 06:48:34;;;;;;;4.82;1.75;;;21.00;99.90;;;;;;4979504;28;20035;-76
2022/08/02 06:51:01;;;;;;;2.75;1.63;;;21.10;99.90;;;;;;4992819;28;20022;-78
2022/08/02 06:53:27;;;;;;;3.33;1.77;;;21.10;99.90;;;;;;5014209;28;20026;-79
2022/08/02 06:55:52;;;;;;;2.60;1.50;;;21.20;99.90;;;;;;4995250;28;20426;-79
2022/08/02 06:58:18;;;;;;;4.00;1.67;;;21.30;99.90;;;;;;4997476;28;20030;-77
2022/08/02 07:00:44;;;;;;;3.67;1.92;;;21.30;99.90;;;;;;4998006;28;20026;-77
2022/08/02 07:03:10;;;;;;;5.00;1.80;;;21.30;99.90;;;;;;5000838;28;20085;-78
2022/08/02 07:05:36;;;;;;;2.25;1.60;;;21.40;99.90;;;;;;4999107;28;20028;-77
2022/08/02 07:08:02;;;;;;;5.47;2.00;;;21.40;99.90;;;;;;5002532;28;20030;-78
2022/08/02 07:10:27;;;;;;;4.50;1.70;;;21.50;99.90;;;;;;4995023;28;20106;-78
2022/08/02 07:12:53;;;;;;;3.85;1.25;;;21.40;99.90;;;;;;4994648;28;20113;-78
2022/08/02 07:15:19;;;;;;;3.50;1.65;;;21.50;99.90;;;;;;4994668;28;20086;-79
2022/08/02 07:17:44;;;;;;;1.52;1.17;;;21.50;99.90;;;;;;4998374;28;20030;-77
2022/08/02 07:20:12;;;;;;;2.47;1.48;;;21.50;99.90;;;;;;4997962;28;20037;-78
2022/08/02 07:22:37;;;;;;;4.53;1.63;;;21.50;99.90;;;;;;5003418;28;20026;-79
2022/08/02 07:25:04;;;;;;;3.25;1.75;;;21.50;99.90;;;;;;5004876;28;20041;-79
2022/08/02 07:27:30;;;;;;;2.28;1.40;;;21.50;99.90;;;;;;5000857;28;20034;-76
2022/08/02 07:29:56;;;;;;;4.88;1.70;;;21.50;99.90;;;;;;4988102;28;20022;-76
2022/08/02 07:32:27;;;;;;;2.58;1.30;;;21.60;99.90;;;;;;5024182;22;20045;-85
2022/08/02 07:34:55;;;;;;;3.25;1.40;;;21.60;99.90;;;;;;4987808;28;20061;-85
2022/08/02 07:37:23;;;;;;;4.97;1.90;;;21.70;99.90;;;;;;4988942;28;20118;-85
2022/08/02 07:39:48;;;;;;;3.65;1.90;;;21.70;99.90;;;;;;4989945;28;20034;-83
2022/08/02 07:42:14;;;;;;;3.03;1.50;;;21.80;99.90;;;;;;4992135;28;20052;-83
2022/08/02 07:44:39;;;;;;;2.20;1.40;;;21.90;99.90;;;;;;4986921;28;20022;-83
2022/08/02 07:47:05;;;;;;;5.25;1.67;;;21.90;99.90;;;;;;4991849;28;20472;-83
2022/08/02 07:49:31;;;;;;;5.05;1.90;;;22.10;99.90;;;;;;4984782;28;20073;-86
2022/08/02 07:51:56;;;;;;;4.10;1.58;;;22.20;99.90;;;;;;4987790;28;20022;-86
2022/08/02 07:54:23;;;;;;;2.80;1.77;;;22.30;99.90;;;;;;4986594;28;20130;-86
2022/08/02 07:56:49;;;;;;;3.80;2.17;;;22.30;99.90;;;;;;4989171;28;20113;-85
2022/08/02 07:59:14;;;;;;;3.85;2.58;;;22.40;99.90;;;;;;4988417;28;20481;-85
2022/08/02 08:01:40;;;;;;;4.88;2.83;;;22.50;99.90;;;;;;4985459;28;20035;-85
2022/08/02 08:04:06;;;;;;;3.35;2.42;;;22.60;99.90;;;;;;4985472;28;26188;-86
2022/08/02 08:06:32;;;;;;;3.63;2.40;;;22.70;99.90;;;;;;4986156;28;20100;-86
2022/08/02 08:08:58;;;;;;;6.18;2.65;;;22.70;99.90;;;;;;4983246;28;20482;-86
2022/08/02 08:11:24;;;;;;;4.72;2.22;;;22.80;99.90;;;;;;4989084;28;20073;-86
2022/08/02 08:13:50;;;;;;;4.25;2.20;;;22.90;99.90;;;;;;5000350;28;20030;-86
2022/08/02 08:16:16;;;;;;;5.15;2.35;;;23.00;99.90;;;;;;4989244;28;21034;-85
2022/08/02 08:18:42;;;;;;;4.00;2.53;;;22.90;99.90;;;;;;4986725;28;20034;-86
2022/08/02 08:21:08;;;;;;;7.93;2.72;;;23.00;99.90;;;;;;4988115;28;20475;-86
2022/08/02 08:23:35;;;;;;;3.40;2.90;;;22.90;99.90;;;;;;4987430;28;20518;-85
2022/08/02 08:26:00;;;;;;;8.60;2.85;;;22.80;99.90;;;;;;4989160;28;20034;-86
2022/08/02 08:28:26;;;;;;;2.83;2.20;;;22.80;99.90;;;;;;4983545;28;20169;-86
2022/08/02 08:30:52;;;;;;;3.08;2.22;;;22.80;99.90;;;;;;4988934;28;20027;-84
2022/08/02 08:33:18;;;;;;;2.67;1.80;;;22.90;99.90;;;;;;4984894;28;20096;-85
2022/08/02 08:35:43;;;;;;;5.50;2.20;;;22.80;99.90;;;;;;4987544;28;20041;-86
2022/08/02 08:38:09;;;;;;;3.13;1.88;;;22.90;99.90;;;;;;5003663;28;20045;-85
2022/08/02 08:40:35;;;;;;;4.20;1.85;;;22.90;99.90;;;;;;4986435;28;20410;-85
2022/08/02 08:43:02;;;;;;;5.38;2.85;;;22.90;99.90;;;;;;4985781;28;20034;-85
2022/08/02 08:45:28;;;;;;;2.65;1.90;;;22.90;99.90;;;;;;5003619;28;20113;-85
2022/08/02 08:48:00;;;;;;;2.50;1.73;;;23.00;99.90;;;;;;4991811;28;20124;-86
2022/08/02 08:50:29;;;;;;;8.23;2.47;;;23.10;99.90;;;;;;4985535;28;20554;-84
2022/08/02 08:53:06;;;;;;;4.95;2.50;;;23.10;99.90;;;;;;4985061;28;20478;-84
2022/08/02 08:55:33;;;;;;;3.97;2.63;;;23.20;99.90;;;;;;4980930;28;20038;-85
2022/08/02 08:58:01;;;;;;;5.00;2.53;;;23.20;99.90;;;;;;4982197;28;20034;-85
2022/08/02 09:00:29;;;;;;;2.63;2.08;;;23.20;99.90;;;;;;4983420;28;20041;-85
2022/08/02 09:02:55;;;;;;;4.80;2.03;;;23.40;99.90;;;;;;4984991;28;20478;-85
2022/08/02 09:05:21;;;;;;;4.25;2.25;;;23.40;99.90;;;;;;4987297;28;20030;-85
2022/08/02 09:07:48;;;;;;;6.35;2.35;;;23.50;99.90;;;;;;4990375;28;20033;-85
2022/08/02 09:10:35;;;;;;;3.95;2.10;;;23.50;99.90;;;;;;4984102;28;20165;-85
2022/08/02 09:13:11;;;;;;;1.75;1.63;;;23.60;99.90;;;;;;4982290;28;20033;-84
2022/08/02 09:15:38;;;;;;;3.47;1.60;;;23.60;99.90;;;;;;4989459;28;20253;-85
2022/08/02 09:18:05;;;;;;;7.50;2.50;;;23.70;99.90;;;;;;4979319;28;20038;-85
2022/08/02 09:20:50;;;;;;;4.55;1.67;;;23.70;99.90;;;;;;4987947;28;20026;-85
2022/08/02 09:23:17;;;;;;;5.50;2.00;;;23.80;99.90;;;;;;4980574;28;20038;-85
2022/08/02 09:26:14;;;;;;;3.42;1.85;;;23.80;99.90;;;;;;4985789;28;20038;-85
2022/08/02 09:28:42;;;;;;;3.22;1.73;;;23.90;99.90;;;;;;4984725;28;20050;-85
2022/08/02 09:31:13;;;;;;;3.03;2.13;;;23.90;99.90;;;;;;4980136;28;20026;-86
2022/08/02 09:33:41;;;;;;;2.50;1.70;;;23.90;99.90;;;;;;4985874;28;20022;-86
2022/08/02 09:36:15;;;;;;;3.40;1.70;;;23.90;99.90;;;;;;4977151;28;20479;-86
2022/08/02 09:38:55;;;;;;;4.00;1.70;;;23.90;99.90;;;;;;5003557;28;20038;-87
2022/08/02 09:41:26;;;;;;;6.18;2.00;;;24.00;99.90;;;;;;4989318;28;20076;-86
2022/08/02 09:43:52;;;;;;;4.65;1.80;;;24.10;99.90;;;;;;4982927;28;20034;-85
2022/08/02 09:46:21;;;;;;;3.85;1.77;;;24.10;99.90;;;;;;4985620;28;20382;-87
2022/08/02 09:48:59;;;;;;;3.08;1.73;;;24.20;99.90;;;;;;4985441;28;20035;-86
2022/08/02 09:51:29;;;;;;;3.13;1.77;;;24.30;99.90;;;;;;4989117;28;20498;-86
2022/08/02 09:53:59;;;;;;;2.97;1.60;;;24.40;99.90;;;;;;4987719;28;20058;-86
2022/08/02 09:56:48;;;;;;;3.03;1.48;;;24.40;99.20;;;;;;4986226;28;20382;-85
2022/08/02 09:59:15;;;;;;;6.20;1.85;;;24.50;99.00;;;;;;5002088;28;20426;-86
2022/08/02 10:01:43;;;;;;;3.15;1.33;;;24.60;98.40;;;;;;4979451;28;20362;-85
2022/08/02 10:04:13;;;;;;;4.90;1.80;;;24.60;98.20;;;;;;4988226;28;20015;-84
2022/08/02 10:06:40;;;;;;;3.75;1.83;;;24.60;97.90;;;;;;4988188;28;20057;-84
2022/08/02 10:09:07;;;;;;;4.97;1.85;;;24.70;97.30;;;;;;4986287;28;20026;-85
2022/08/02 10:11:34;;;;;;;4.65;1.83;;;24.70;96.50;;;;;;4988332;28;20022;-84
2022/08/02 10:14:02;;;;;;;1.75;1.40;;;24.70;96.60;;;;;;4987352;28;20034;-86
2022/08/02 10:16:28;;;;;;;3.15;1.75;;;24.70;96.60;;;;;;4984026;28;20124;-86
2022/08/02 10:18:59;;;;;;;3.22;1.70;;;24.80;96.70;;;;;;4983941;28;20031;-86
2022/08/02 10:21:45;;;;;;;2.67;1.58;;;24.80;96.40;;;;;;4986731;28;20027;-87
2022/08/02 10:24:16;;;;;;;3.35;1.85;;;24.90;96.20;;;;;;4985816;28;20092;-87
2022/08/02 10:26:44;;;;;;;5.68;2.58;;;24.80;96.10;;;;;;4984774;28;20058;-86
2022/08/02 10:29:14;;;;;;;3.92;2.08;;;24.90;96.20;;;;;;4985648;28;20414;-85
2022/08/02 10:31:46;;;;;;;3.63;1.90;;;24.90;96.20;;;;;;4992740;28;20096;-85
2022/08/02 10:34:15;;;;;;;3.25;1.88;;;24.80;95.80;;;;;;4981254;28;20022;-85
2022/08/02 10:36:41;;;;;;;3.28;1.83;;;24.90;95.90;;;;;;5002729;28;20068;-85
2022/08/02 10:39:07;;;;;;;3.45;1.33;;;24.80;95.60;;;;;;4986364;28;20030;-84
2022/08/02 10:41:49;;;;;;;3.05;1.75;;;24.80;95.80;;;;;;4984992;28;20029;-88
2022/08/02 10:44:34;;;;;;;2.10;1.88;;;24.90;96.10;;;;;;4998493;28;20545;-87
2022/08/02 10:47:25;;;;;;;2.00;1.40;;;24.90;95.60;;;;;;4984461;28;20031;-87
2022/08/02 10:49:58;;;;;;;3.80;1.58;;;24.90;95.20;;;;;;4978984;28;20085;-85
2022/08/02 10:52:24;;;;;;;3.20;1.73;;;24.90;94.30;;;;;;4985969;28;20026;-85
2022/08/02 10:54:57;;;;;;;3.33;1.90;;;24.90;94.70;;;;;;4984824;28;20432;-85
2022/08/02 10:57:25;;;;;;;3.00;1.50;;;24.90;94.70;;;;;;4987792;28;20398;-86
2022/08/02 11:00:00;;;;;;;2.65;1.92;;;24.90;94.40;;;;;;4986692;28;20101;-85
2022/08/02 11:02:44;;;;;;;1.60;1.40;;;24.90;93.80;;;;;;5003672;28;20494;-88
2022/08/02 11:05:11;;;;;;;;;;;24.90;93.80;;;;;;5001995;28;20061;-87
2022/08/02 11:07:43;;;;;;;1.80;1.65;;;25.00;93.70;;;;;;4987747;28;20376;-84
2022/08/02 11:10:29;;;;;;;2.63;1.52;;;25.00;93.60;;;;;;4989519;28;20061;-83
2022/08/02 11:13:13;;;;;;;7.07;1.55;;;25.10;93.60;;;;;;4983419;28;20109;-83
2022/08/02 11:16:03;;;;;;;2.95;1.38;;;25.10;92.90;;;;;;4988729;28;20052;-82
2022/08/02 11:18:50;;;;;;;6.13;1.80;;;25.20;92.80;;;;;;4989113;28;20030;-83
2022/08/02 11:21:24;;;;;;;2.10;1.48;;;25.20;93.10;;;;;;4978793;28;20033;-81
2022/08/02 11:23:50;;;;;;;;;;;25.30;93.10;;;;;;4981375;28;20150;-79
2022/08/02 11:26:28;;;;;;;7.03;1.88;;;25.20;92.50;;;;;;4982607;28;19917;-81
2022/08/02 11:28:54;;;;;;;2.53;1.55;;;25.30;92.60;;;;;;4989041;28;20031;-81
2022/08/02 11:31:20;;;;;;;1.90;1.52;;;25.30;92.30;;;;;;4988498;28;20529;-80
2022/08/02 11:33:48;;;;;;;3.08;1.42;;;25.40;92.10;;;;;;4986392;28;20505;-80
2022/08/02 11:36:14;;;;;;;2.72;1.40;;;25.40;91.50;;;;;;4990614;28;20030;-80
2022/08/02 11:38:40;;;;;;;5.53;1.80;;;25.40;90.90;;;;;;4989804;28;20156;-78
2022/08/02 11:41:07;;;;;;;1.55;1.30;;;25.40;91.00;;;;;;4985137;28;20354;-80
2022/08/02 11:43:34;;;;;;;2.72;1.58;;;25.50;90.50;;;;;;4988500;28;20034;-80
2022/08/02 11:46:03;;;;;;;4.13;1.35;;;25.50;90.60;;;;;;4990314;28;20073;-79
2022/08/02 11:48:40;;;;;;;1.90;1.58;;;25.50;90.60;;;;;;4981391;28;20034;-79
2022/08/02 11:51:07;;;;;;;2.40;1.38;;;25.60;90.60;;;;;;4983830;28;20052;-79
2022/08/02 11:53:43;;;;;;;2.15;1.23;;;25.60;90.70;;;;;;4983279;28;20169;-80
2022/08/02 11:56:09;;;;;;;1.77;1.40;;;25.70;90.60;;;;;;4981833;28;20487;-80
2022/08/02 11:58:35;;;;;;;3.35;1.38;;;25.70;90.20;;;;;;4983675;28;20052;-82
2022/08/02 12:01:02;;;;;;;2.53;1.70;;;25.70;90.10;;;;;;4979325;28;20109;-82
2022/08/02 12:03:32;;;;;;;1.90;1.35;;;25.70;90.10;;;;;;4979037;28;20030;-81
2022/08/02 12:05:58;;;;;;;1.60;1.33;;;25.80;90.10;;;;;;4981450;28;20030;-82
2022/08/02 12:08:25;;;;;;;1.42;1.20;;;25.70;89.90;;;;;;4996493;28;20030;-82
2022/08/02 12:10:51;;;;;;;2.97;1.33;;;25.70;89.30;;;;;;4984413;28;20102;-82
2022/08/02 12:13:16;;;;;;;3.40;1.60;;;25.80;89.30;;;;;;5003846;28;20110;-82
2022/08/02 12:15:44;;;;;;;5.30;1.52;;;25.80;88.70;;;;;;4980927;28;20117;-82
2022/08/02 12:21:23;;;;;;;3.13;1.65;;;25.80;86.90;;;;;;4984786;28;20037;-82
2022/08/02 12:23:49;;;;;;;2.85;1.17;;;25.80;86.70;;;;;;4986433;28;20461;-82
2022/08/02 12:26:14;;;;;;;3.60;1.35;;;25.80;87.40;;;;;;4984062;28;20030;-82
2022/08/02 12:28:40;;;;;;;2.75;1.50;;;25.80;86.00;;;;;;4990192;28;20092;-82
2022/08/02 12:31:09;;;;;;;3.22;1.40;;;25.80;86.30;;;;;;4987207;28;20417;-82
2022/08/02 12:33:53;;;;;;;4.25;1.65;;;25.80;85.90;;;;;;4986403;28;20462;-82
2022/08/02 12:36:28;;;;;;;3.85;1.25;;;25.80;85.30;;;;;;4981563;28;20030;-82
2022/08/02 12:38:57;;;;;;;2.15;1.20;;;25.80;84.70;;;;;;4989392;28;20034;-82
2022/08/02 12:41:23;;;;;;;2.25;1.48;;;25.80;85.50;;;;;;4982463;28;20038;-84
2022/08/02 12:43:50;;;;;;;4.82;1.30;;;25.80;85.50;;;;;;4984986;28;20037;-83
2022/08/02 12:46:18;;;;;;;1.88;1.27;;;25.90;85.60;;;;;;4985025;28;20022;-82
2022/08/02 12:48:44;;;;;;;1.45;1.35;;;25.90;85.50;;;;;;4978263;28;20034;-81
2022/08/02 12:51:33;;;;;;;4.53;1.45;;;26.00;85.20;;;;;;4986052;28;20233;-81
2022/08/02 12:54:16;;;;;;;1.52;1.35;;;26.00;84.80;;;;;;4945758;28;20461;-81
2022/08/02 12:56:42;;;;;;;1.75;1.10;;;26.00;84.60;;;;;;5003928;28;20026;-81
2022/08/02 12:59:08;;;;;;;1.63;1.27;;;26.00;84.70;;;;;;4985124;28;20101;-82
2022/08/02 13:01:34;;;;;;;2.75;1.13;;;26.10;81.90;;;;;;4987344;28;20125;-83